ORER/EBL METAR and TAF weather

Enter ICAO airport designator
Station Type Date Time Source
ORER METAR 2019/04/24 21:00 UTC NOAA

ORER 242100Z 35002KT CAVOK 09/07 Q1023 NOSIG


Station Type Date Time Source
ORER Decoded METAR 2019/04/24 21:00 UTC NOAA

Station name not available
Apr 24, 2019 - 05:00 PM EDT / 2019.04.24 2100 UTC
Wind: from the N (350 degrees) at 2 MPH (2 KT):0
Visibility: greater than 7 mile(s):0
Temperature: 48 F (9 C)
Dew Point: 44 F (7 C)
Relative Humidity: 87%
Pressure (altimeter): 30.21 in. Hg (1023 hPa)
ob: ORER 242100Z 35002KT CAVOK 09/07 Q1023 NOSIG
cycle: 21

Station Type Date Time Source
ORER TAF 2019/04/24 18:42 UTC NOAA

TAF ORER 241700Z 2418/2518 VRB03KT 8000 SCT040
BECMG 2506/2508 31010KT SCT030 SCT080

Example: see airport list